Latest Weather Observations for Meekatharra

IDW60801

Issued at 5:43 pm WST Thursday 16 August 2018 (issued every 10 minutes, with the page automatically refreshed every 10 minutes)

About weather observations | Map of weather stations | Latest weather observations for WA | Other Formats
Station Details ID: 007045 Name: MEEKATHARRA AIRPORT Lat: -26.61 Lon: 118.54 Height: 517.0 m
Data from the previous 72 hours. | See also: Recent months at Meekatharra
Date/Time
WST
Temp
°C
App
Temp
°C
Dew
Point
°C
Rel
Hum
%
Delta-T
°C
Wind Press
QNH
hPa
Press
MSL
hPa
Rain since
9am
mm
Dir  Spd
km/h
Gust
km/h
Spd
kts
Gust
kts
16/05:30pm 21.6 17.0 3.8 31 8.8 SSW 17 22 9 12 1017.1 1016.1 0.0
16/05:00pm 22.1 17.5 3.7 30 9.1 SSW 17 22 9 12 1016.8 1015.8 0.0
16/04:30pm 22.9 18.8 4.4 30 9.3 SSW 15 28 8 15 1016.7 1015.7 0.0
16/04:00pm 23.0 19.3 4.5 30 9.4 S 13 20 7 11 1016.7 1015.7 0.0
16/03:30pm 23.0 20.2 5.0 31 9.2 SSW 9 15 5 8 1016.6 1015.6 0.0
16/03:00pm 22.9 19.7 5.3 32 9.0 WSW 11 17 6 9 1016.6 1015.6 0.0
16/02:30pm 23.0 19.9 5.4 32 9.1 S 11 26 6 14 1016.7 1015.7 0.0
16/02:00pm 22.5 20.1 5.4 33 8.8 SW 7 13 4 7 1017.0 1016.0 0.0
16/01:30pm 22.0 19.0 5.8 35 8.3 WSW 11 15 6 8 1017.3 1016.4 0.0
16/01:00pm 22.0 19.4 6.3 36 8.2 SW 9 13 5 7 1017.7 1016.8 0.0
16/12:30pm 21.2 18.6 6.3 38 7.7 WSW 9 13 5 7 1018.6 1017.6 0.0
16/12:00pm 21.7 19.2 6.4 37 7.9 SE 9 20 5 11 1019.2 1018.3 0.0
16/11:30am 20.3 16.8 5.5 38 7.5 ESE 13 22 7 12 1019.7 1018.8 0.0
16/11:00am 19.4 15.7 4.7 38 7.3 ESE 13 19 7 10 1020.1 1019.2 0.0
16/10:30am 18.4 14.2 3.8 38 7.1 ESE 15 24 8 13 1020.6 1019.7 0.0
16/10:00am 17.5 12.9 3.8 40 6.6 ESE 17 22 9 12 1020.9 1020.0 0.0
16/09:30am 16.5 11.8 2.9 40 6.4 ESE 17 24 9 13 1021.1 1020.2 0.0
16/09:00am 15.3 10.5 2.8 43 5.8 ESE 17 24 9 13 1021.0 1020.1 0.0
16/08:30am 14.4 10.0 2.6 45 5.4 SE 15 20 8 11 1021.1 1020.2 0.0
16/08:00am 13.0 8.5 2.3 48 4.8 ESE 15 20 8 11 1020.8 1019.9 0.0
16/07:30am 11.9 8.2 2.4 52 4.2 SE 11 15 6 8 1020.7 1019.8 0.0
16/07:00am 10.7 7.4 2.3 56 3.7 SE 9 13 5 7 1020.4 1019.5 0.0
16/06:30am 10.4 6.3 2.3 57 3.6 SE 13 17 7 9 1020.2 1019.3 0.0
16/06:00am 10.7 6.2 2.3 56 3.7 SE 15 17 8 9 1020.2 1019.3 0.0
16/05:30am 11.0 6.1 2.3 55 3.8 SE 17 20 9 11 1019.9 1019.0 0.0
16/05:00am 11.2 6.7 2.2 54 4.0 SSE 15 20 8 11 1020.1 1019.2 0.0
16/04:30am 11.4 6.5 2.2 53 4.1 SSE 17 22 9 12 1019.8 1018.9 0.0
16/04:00am 11.8 6.9 2.0 51 4.3 SSE 17 24 9 13 1019.9 1019.0 0.0
16/03:30am 12.1 6.8 2.0 50 4.5 SSE 19 24 10 13 1019.9 1019.0 0.0
16/03:00am 12.4 7.1 2.0 49 4.6 SSE 19 24 10 13 1020.1 1019.2 0.0
16/02:30am 12.9 7.5 2.5 49 4.7 S 20 30 11 16 1019.8 1018.9 0.0
16/02:00am 13.7 8.5 3.8 51 4.6 S 20 28 11 15 1019.8 1018.9 0.0
16/01:30am 14.2 9.8 4.8 53 4.5 S 17 22 9 12 1020.0 1019.1 0.0
16/01:00am 14.5 10.3 5.6 55 4.3 S 17 20 9 11 1020.0 1019.1 0.0
16/12:30am 15.0 11.6 6.0 55 4.4 S 13 19 7 10 1020.0 1019.1 0.0
16/12:00am 15.1 11.0 6.4 56 4.3 SSE 17 20 9 11 1020.0 1019.1 0.0
 
Date/Time
WST
Temp
°C
App
Temp
°C
Dew
Point
°C
Rel
Hum
%
Delta-T
°C
Wind Press
QNH
hPa
Press
MSL
hPa
Rain since
9am
mm
Dir  Spd
km/h
Gust
km/h
Spd
kts
Gust
kts
15/11:30pm 15.7 12.2 7.0 56 4.4 S 15 22 8 12 1020.2 1019.3 0.0
15/11:00pm 15.9 12.7 6.9 55 4.5 SSE 13 17 7 9 1020.1 1019.2 0.0
15/10:30pm 16.8 13.3 7.2 53 4.9 SSE 15 20 8 11 1020.2 1019.3 0.0
15/10:00pm 17.3 13.5 7.4 52 5.1 SSE 17 24 9 13 1020.7 1019.8 0.0
15/09:30pm 17.2 13.5 7.8 54 4.9 S 17 20 9 11 1020.4 1019.5 0.0
15/09:00pm 17.9 13.7 8.2 53 5.1 SSE 20 28 11 15 1020.3 1019.4 0.0
15/08:30pm 18.0 15.1 8.3 53 5.1 S 13 17 7 9 1020.4 1019.5 0.0
15/08:00pm 18.1 15.3 8.7 54 5.0 SSE 13 17 7 9 1019.9 1019.0 0.0
15/07:30pm 18.6 15.9 9.1 54 5.1 SSE 13 17 7 9 1019.5 1018.6 0.0
15/07:00pm 18.9 17.2 9.7 55 5.0 SSW 9 13 5 7 1019.6 1018.7 0.0
15/06:30pm 19.2 17.1 9.7 54 5.2 S 11 15 6 8 1019.1 1018.2 0.0
15/06:00pm 19.8 18.1 9.7 52 5.5 SSW 9 15 5 8 1018.8 1017.8 0.0
15/05:30pm 20.4 18.2 9.3 49 6.0 SW 11 15 6 8 1018.6 1017.6 0.0
15/05:00pm 21.0 19.6 9.6 48 6.3 WSW 7 11 4 6 1018.4 1017.5 0.0
15/04:30pm 21.2 19.5 9.8 48 6.3 W 9 17 5 9 1018.6 1017.6 0.0
15/04:00pm 20.9 19.0 9.2 47 6.4 W 9 15 5 8 1018.6 1017.6 0.0
15/03:30pm 21.5 19.2 9.1 45 6.8 NW 11 19 6 10 1018.6 1017.6 0.0
15/03:00pm 22.3 20.4 9.1 43 7.2 WNW 9 17 5 9 1018.6 1017.6 0.0
15/02:30pm 21.3 18.9 9.9 48 6.3 NW 13 17 7 9 1018.8 1017.8 0.0
15/02:00pm 21.1 19.6 10.6 51 5.9 ENE 9 15 5 8 1018.9 1017.9 0.0
15/01:30pm 20.1 19.2 10.8 55 5.2 ENE 6 9 3 5 1019.5 1018.6 0.0
15/01:00pm 19.6 18.6 10.9 57 4.8 ENE 7 15 4 8 1020.1 1019.2 0.0
15/12:30pm 19.1 17.3 10.9 59 4.6 E 11 19 6 10 1020.6 1019.7 0.0
15/12:00pm 18.3 16.5 10.7 61 4.2 E 11 17 6 9 1021.1 1020.2 0.0
15/11:30am 17.5 15.4 11.1 66 3.5 ESE 13 17 7 9 1021.5 1020.6 0.0
15/11:00am 17.0 14.9 11.3 69 3.2 SE 13 19 7 10 1022.0 1021.1 0.0
15/10:30am 16.2 13.3 10.9 71 2.9 SE 17 22 9 12 1022.3 1021.5 0.0
15/10:00am 15.9 13.5 11.5 75 2.4 SE 15 20 8 11 1022.4 1021.6 0.0
15/09:30am 15.2 12.7 12.2 82 1.7 SE 17 24 9 13 1022.5 1021.7 0.0
15/09:16am 15.2 12.5 11.6 79 2.0 SE 17 24 9 13 1022.4 1021.6 0.0
15/09:00am 15.2 12.1 11.6 79 2.0 SSE 19 24 10 13 1022.4 1021.6 0.0
15/08:30am 15.1 12.5 11.9 81 1.8 SSE 17 24 9 13 1022.1 1021.2 0.0
15/08:00am 15.3 12.0 11.5 78 2.1 SSE 20 30 11 16 1021.8 1020.9 0.0
15/07:34am 15.1 13.2 11.7 80 1.9 SSE 13 20 7 11 1021.5 1020.6 0.0
15/07:30am 15.1 13.2 11.9 81 1.8 SSE 13 17 7 9 1021.4 1020.5 0.0
15/07:25am 15.1 13.2 11.9 81 1.8 SSE 13 17 7 9 1021.3 1020.4 0.0
15/07:00am 14.7 12.0 11.7 82 1.7 SSE 17 20 9 11 1021.0 1020.1 0.0
15/06:49am 14.7 12.4 11.7 82 1.7 SSE 15 22 8 12 1021.0 1020.1 0.0
15/06:30am 14.8 12.5 11.6 81 1.8 S 15 20 8 11 1021.1 1020.2 0.0
15/06:00am 14.8 12.2 11.9 83 1.6 S 17 24 9 13 1020.8 1019.9 0.0
15/05:30am 15.0 12.8 12.1 83 1.6 S 15 22 8 12 1020.4 1019.5 0.0
15/05:00am 15.0 13.2 12.0 82 1.7 S 13 17 7 9 1020.1 1019.2 0.0
15/04:30am 15.2 13.4 12.0 81 1.8 S 13 17 7 9 1020.0 1019.1 0.0
15/04:00am 15.5 13.7 12.1 80 1.9 S 13 17 7 9 1020.0 1019.1 0.0
15/03:30am 15.6 14.6 12.4 81 1.8 SSE 9 13 5 7 1019.9 1019.0 0.0
15/03:00am 15.8 14.4 12.2 79 2.0 S 11 15 6 8 1020.2 1019.3 0.0
15/02:30am 16.4 14.1 11.6 73 2.7 S 15 20 8 11 1020.4 1019.5 0.0
15/02:00am 16.3 13.8 11.2 72 2.8 S 15 20 8 11 1020.4 1019.5 0.0
15/01:30am 16.8 13.8 10.6 67 3.4 S 17 20 9 11 1020.4 1019.5 0.0
15/01:00am 17.1 13.4 9.5 61 4.1 SSW 19 24 10 13 1020.6 1019.7 0.0
15/12:30am 18.1 13.5 3.6 38 7.0 SW 17 22 9 12 1020.6 1019.7 0.0
15/12:00am 17.2 13.9 0.4 32 7.5 N 7 7 4 4 1020.1 1019.2 0.0
 
Date/Time
WST
Temp
°C
App
Temp
°C
Dew
Point
°C
Rel
Hum
%
Delta-T
°C
Wind Press
QNH
hPa
Press
MSL
hPa
Rain since
9am
mm
Dir  Spd
km/h
Gust
km/h
Spd
kts
Gust
kts
14/11:30pm 17.8 14.6 0.9 32 7.7 N 7 9 4 5 1020.3 1019.4 0.0
14/11:00pm 18.6 15.3 0.2 29 8.3 NW 7 9 4 5 1020.4 1019.5 0.0
14/10:30pm 18.7 15.6 1.2 31 8.1 NW 7 7 4 4 1020.3 1019.4 0.0
14/10:00pm 18.9 15.7 1.0 30 8.2 WNW 7 7 4 4 1020.6 1019.7 0.0
14/09:30pm 19.1 16.0 1.1 30 8.3 WNW 7 9 4 5 1020.8 1019.9 0.0
14/09:00pm 19.0 15.9 1.5 31 8.1 WNW 7 7 4 4 1020.6 1019.7 0.0
14/08:30pm 19.5 16.3 1.0 29 8.5 WNW 7 7 4 4 1020.7 1019.8 0.0
14/08:00pm 18.8 15.8 1.8 32 7.9 NNW 7 9 4 5 1020.4 1019.5 0.0
14/07:30pm 18.6 15.5 1.2 31 8.0 WNW 7 7 4 4 1020.1 1019.2 0.0
14/07:00pm 19.9 16.7 0.9 28 8.8 WNW 7 9 4 5 1019.9 1019.0 0.0
14/06:30pm 19.9 16.6 0.4 27 8.9 WNW 7 9 4 5 1019.7 1018.8 0.0
14/06:00pm 21.0 17.8 0.8 26 9.4 WNW 7 11 4 6 1019.5 1018.6 0.0
14/05:30pm 22.2 17.4 0.1 23 10.2 WNW 15 22 8 12 1019.4 1018.5 0.0
14/05:00pm 23.2 18.8 0.3 22 10.7 WNW 13 20 7 11 1019.3 1018.4 0.0
14/04:30pm 23.8 18.6 0.2 21 11.1 WNW 17 28 9 15 1019.2 1018.3 0.0
14/04:00pm 23.8 18.6 0.2 21 11.1 WNW 17 24 9 13 1019.0 1018.1 0.0
14/03:30pm 23.7 17.0 -1.3 19 11.4 NW 24 35 13 19 1019.1 1018.2 0.0
14/03:00pm 23.5 17.4 -2.2 18 11.5 W 20 30 11 16 1019.2 1018.3 0.0
14/02:30pm 23.8 17.4 -1.9 18 11.6 WNW 22 33 12 18 1019.3 1018.4 0.0
14/02:00pm 23.6 16.4 -2.1 18 11.5 NW 26 35 14 19 1019.6 1018.7 0.0
14/01:30pm 23.5 17.1 -1.4 19 11.3 NW 22 35 12 19 1019.8 1018.9 0.0
14/01:00pm 23.5 17.3 -0.1 21 11.0 NW 22 30 12 16 1020.2 1019.3 0.0
14/12:30pm 22.7 16.8 -0.7 21 10.7 NW 20 30 11 16 1020.8 1019.9 0.0
14/12:00pm 21.6 16.5 -2.3 20 10.5 NNW 15 24 8 13 1021.2 1020.3 0.0
14/11:30am 20.7 15.6 0.5 26 9.3 NW 17 26 9 14 1021.9 1021.0 0.0
14/11:00am 20.5 15.4 0.9 27 9.1 WNW 17 24 9 13 1022.2 1021.4 0.0
14/10:30am 19.7 15.4 3.0 33 8.0 W 15 22 8 12 1022.3 1021.5 0.0
14/10:00am 18.5 13.8 3.2 36 7.3 WSW 17 22 9 12 1022.8 1021.9 0.0
14/09:30am 17.7 11.9 2.1 35 7.3 WSW 22 32 12 17 1022.9 1022.0 0.0
14/09:00am 16.7 11.8 -0.5 31 7.5 WSW 15 26 8 14 1022.7 1021.8 0.0
14/08:30am 14.7 11.9 -7.4 21 8.2 CALM 0 0 0 0 1022.5 1021.7 0.0
14/08:00am 12.2 7.6 -8.3 23 7.2 NNW 9 11 5 6 1022.1 1021.2 0.0
14/07:30am 10.2 5.2 -8.4 26 6.4 N 11 13 6 7 1022.0 1021.1 0.0
14/07:00am 9.4 4.4 -8.6 27 6.0 N 11 13 6 7 1021.7 1020.8 0.0
14/06:30am 9.0 4.0 -8.5 28 5.9 WNW 11 13 6 7 1021.6 1020.7 0.0
14/06:00am 7.0 2.3 -8.9 31 5.1 NNE 9 11 5 6 1020.8 1019.9 0.0
14/05:30am 6.9 2.2 -9.0 31 5.1 NNE 9 11 5 6 1020.6 1019.7 0.0
14/05:00am 7.2 2.5 -9.2 30 5.3 NNE 9 11 5 6 1020.4 1019.5 0.0
14/04:30am 8.3 3.2 -9.1 28 5.7 NNE 11 13 6 7 1020.3 1019.4 0.0
14/04:00am 8.8 3.7 -9.1 27 5.9 NNE 11 13 6 7 1020.4 1019.5 0.0
14/03:30am 9.2 4.1 -9.3 26 6.1 NNE 11 15 6 8 1020.6 1019.7 0.0
14/03:00am 9.3 4.2 -9.2 26 6.1 NNE 11 13 6 7 1020.8 1019.9 0.0
14/02:30am 9.6 4.5 -8.9 26 6.2 NNE 11 15 6 8 1021.0 1020.1 0.0
14/02:00am 9.1 4.4 -9.4 26 6.1 NNE 9 11 5 6 1021.0 1020.1 0.0
14/01:30am 9.6 4.9 -8.9 26 6.2 NNE 9 11 5 6 1021.0 1020.1 0.0
14/01:00am 10.3 5.6 -8.8 25 6.4 NNE 9 13 5 7 1021.2 1020.3 0.0
14/12:30am 9.9 4.9 -8.7 26 6.3 NNE 11 13 6 7 1021.1 1020.2 0.0
14/12:00am 10.4 5.7 -8.8 25 6.5 NE 9 13 5 7 1021.0 1020.1 0.0
 
Date/Time
WST
Temp
°C
App
Temp
°C
Dew
Point
°C
Rel
Hum
%
Delta-T
°C
Wind Press
QNH
hPa
Press
MSL
hPa
Rain since
9am
mm
Dir  Spd
km/h
Gust
km/h
Spd
kts
Gust
kts
13/11:30pm 10.8 6.2 -8.4 25 6.6 N 9 11 5 6 1020.9 1020.0 0.0
13/11:00pm 11.1 6.5 -8.2 25 6.7 NNE 9 11 5 6 1021.1 1020.2 0.0
13/10:30pm 11.3 6.7 -8.0 25 6.8 NNE 9 11 5 6 1021.2 1020.3 0.0
13/10:00pm 12.4 7.8 -8.1 23 7.2 NNE 9 11 5 6 1021.3 1020.4 0.0
13/09:30pm 12.7 8.1 -8.4 22 7.4 NNE 9 11 5 6 1021.4 1020.5 0.0
13/09:00pm 12.9 8.7 -7.7 23 7.4 NNW 7 9 4 5 1021.7 1020.8 0.0
13/08:30pm 14.4 9.7 -8.9 19 8.3 NW 9 11 5 6 1021.6 1020.7 0.0
13/08:00pm 15.6 10.5 -9.3 17 8.9 NW 11 13 6 7 1021.6 1020.7 0.0
13/07:30pm 16.7 12.0 -9.2 16 9.4 NW 9 11 5 6 1021.3 1020.4 0.0
13/07:00pm 18.2 13.1 -9.7 14 10.2 NW 11 11 6 6 1021.2 1020.3 0.0
13/06:30pm 18.2 13.5 -9.7 14 10.2 NW 9 11 5 6 1020.9 1020.0 0.0
13/06:00pm 21.0 16.2 -10.5 11 11.7 NW 9 11 5 6 1020.7 1019.8 0.0

Other Formats:

Comma delimited format used in spreadsheet applications
http://www.bom.gov.au/fwo/IDW60801/IDW60801.94430.axf

JavaScript Object Notation format (JSON) in row-major order
http://www.bom.gov.au/fwo/IDW60801/IDW60801.94430.json